createdAt,value
2022-08-03T00:00:33.338Z,10.70
2022-08-03T00:03:04.703Z,9.40
2022-08-03T00:05:35.672Z,10.20
2022-08-03T00:08:03.738Z,10.00
2022-08-03T00:10:33.030Z,9.70
2022-08-03T00:13:01.084Z,9.20
2022-08-03T00:15:28.979Z,9.60
2022-08-03T00:17:56.877Z,9.30
2022-08-03T00:20:25.234Z,9.30
2022-08-03T00:22:53.104Z,10.00
2022-08-03T00:25:21.030Z,10.80
2022-08-03T00:27:49.038Z,10.10
2022-08-03T00:30:18.938Z,10.00
2022-08-03T00:32:47.922Z,10.80
2022-08-03T00:35:35.110Z,10.30
2022-08-03T00:38:04.677Z,10.70
2022-08-03T00:40:32.832Z,10.60
2022-08-03T00:43:06.692Z,11.50
2022-08-03T00:45:37.622Z,12.10
2022-08-03T00:48:07.372Z,11.50
2022-08-03T00:50:55.343Z,11.50
2022-08-03T00:53:23.235Z,12.50
2022-08-03T00:55:51.350Z,11.40
2022-08-03T00:58:19.615Z,12.00
2022-08-03T01:00:47.549Z,11.40
2022-08-03T01:03:15.533Z,12.00
2022-08-03T01:06:03.238Z,11.90
2022-08-03T01:08:44.192Z,11.00
2022-08-03T01:11:59.997Z,11.20
2022-08-03T01:14:58.568Z,13.80
2022-08-03T01:17:34.806Z,11.10
2022-08-03T01:20:13.817Z,27.20
2022-08-03T01:22:59.895Z,11.80
2022-08-03T01:25:40.321Z,13.60
2022-08-03T01:28:26.845Z,12.10
2022-08-03T01:30:59.265Z,11.90
2022-08-03T01:33:37.302Z,11.90
2022-08-03T01:36:09.846Z,11.00
2022-08-03T01:38:44.019Z,11.60
2022-08-03T01:44:29.852Z,10.90
2022-08-03T01:47:00.790Z,11.90
2022-08-03T01:49:32.098Z,12.00
2022-08-03T01:52:04.852Z,11.00
2022-08-03T01:54:42.525Z,11.80
2022-08-03T01:57:11.829Z,14.70
2022-08-03T01:59:41.709Z,13.30
2022-08-03T02:02:15.432Z,13.20
2022-08-03T02:05:01.654Z,13.30
2022-08-03T02:07:31.068Z,12.10
2022-08-03T02:10:00.311Z,10.90
2022-08-03T02:12:31.895Z,12.40
2022-08-03T02:15:01.528Z,12.80
2022-08-03T02:17:38.954Z,14.00
2022-08-03T02:20:13.574Z,12.80
2022-08-03T02:22:43.504Z,12.60
2022-08-03T02:25:13.001Z,12.50
2022-08-03T02:27:52.839Z,14.50
2022-08-03T02:30:23.718Z,14.80
2022-08-03T02:32:58.002Z,12.50
2022-08-03T02:35:29.798Z,13.00
2022-08-03T02:38:02.485Z,14.50
2022-08-03T02:40:32.386Z,12.50
2022-08-03T02:43:07.719Z,12.80
2022-08-03T02:45:45.371Z,12.80
2022-08-03T02:48:18.610Z,13.70
2022-08-03T02:50:48.310Z,13.30
2022-08-03T02:53:17.646Z,14.50
2022-08-03T02:55:47.305Z,12.40
2022-08-03T02:58:19.812Z,11.90
2022-08-03T03:00:48.695Z,13.70
2022-08-03T03:03:16.699Z,13.40
2022-08-03T03:05:55.754Z,14.00
2022-08-03T03:08:28.697Z,12.90
2022-08-03T03:11:01.007Z,11.30
2022-08-03T03:13:31.196Z,13.00
2022-08-03T03:16:02.579Z,12.60
2022-08-03T03:18:33.346Z,12.30
2022-08-03T03:21:03.662Z,13.70
2022-08-03T03:23:34.205Z,12.90
2022-08-03T03:26:02.641Z,13.60
2022-08-03T03:28:31.976Z,13.40
2022-08-03T03:31:01.078Z,13.50
2022-08-03T03:33:29.127Z,12.50
2022-08-03T03:35:58.662Z,12.00
2022-08-03T03:38:26.939Z,12.20
2022-08-03T03:40:55.209Z,12.50
2022-08-03T03:43:24.007Z,13.30
2022-08-03T03:45:53.767Z,12.00
2022-08-03T03:48:21.917Z,15.20
2022-08-03T03:50:50.676Z,11.70
2022-08-03T03:53:19.021Z,13.20
2022-08-03T03:56:01.673Z,12.40
2022-08-03T03:58:32.734Z,13.20
2022-08-03T04:01:01.141Z,14.70
2022-08-03T04:03:29.549Z,14.50
2022-08-03T04:06:17.532Z,12.80
2022-08-03T04:09:21.226Z,15.90
2022-08-03T04:11:51.809Z,13.10
2022-08-03T04:14:33.889Z,14.10
2022-08-03T04:17:05.740Z,24.20
2022-08-03T04:19:38.836Z,15.40
2022-08-03T04:22:10.926Z,13.60
2022-08-03T04:24:47.351Z,14.70
2022-08-03T04:27:18.559Z,17.80
2022-08-03T04:29:49.710Z,14.30
2022-08-03T04:32:18.369Z,15.90
2022-08-03T04:34:47.397Z,14.40
2022-08-03T04:37:23.897Z,14.10
2022-08-03T04:39:54.612Z,14.30
2022-08-03T04:42:26.353Z,14.10
2022-08-03T04:45:01.120Z,12.90
2022-08-03T04:47:33.320Z,7.90
2022-08-03T04:50:03.063Z,13.40
2022-08-03T04:52:31.592Z,15.00
2022-08-03T04:54:59.548Z,13.70
2022-08-03T04:57:27.494Z,15.20
2022-08-03T05:00:02.188Z,17.00
2022-08-03T05:02:31.955Z,14.80
2022-08-03T05:05:00.329Z,15.30
2022-08-03T05:07:36.175Z,17.20
2022-08-03T05:10:16.047Z,13.50
2022-08-03T05:12:47.703Z,14.50
2022-08-03T05:15:16.056Z,14.10
2022-08-03T05:17:44.179Z,16.90
2022-08-03T05:20:12.789Z,16.90
2022-08-03T05:22:40.822Z,12.90
2022-08-03T05:25:08.979Z,16.70
2022-08-03T05:27:36.993Z,16.70
2022-08-03T05:30:30.669Z,15.70
2022-08-03T05:32:53.630Z,16.90
2022-08-03T05:36:02.640Z,10.30
2022-08-03T05:38:09.663Z,14.60
2022-08-03T05:40:38.620Z,16.70
2022-08-03T05:43:15.001Z,22.10
2022-08-03T05:45:43.472Z,17.70
2022-08-03T05:48:11.415Z,20.20
2022-08-03T05:50:42.800Z,17.50
2022-08-03T05:53:10.891Z,13.30
2022-08-03T05:55:38.850Z,19.50
2022-08-03T05:58:06.891Z,18.60
2022-08-03T06:00:34.853Z,9.50
2022-08-03T06:03:02.836Z,15.10
2022-08-03T06:05:31.522Z,20.90
2022-08-03T06:07:59.418Z,16.10
2022-08-03T06:10:35.506Z,17.70
2022-08-03T06:13:05.602Z,14.10
2022-08-03T06:15:35.512Z,14.30
2022-08-03T06:18:03.616Z,15.40
2022-08-03T06:20:31.547Z,18.40
2022-08-03T06:23:01.366Z,16.60
2022-08-03T06:25:29.512Z,16.10
2022-08-03T06:27:59.582Z,17.40
2022-08-03T06:30:27.583Z,18.60
2022-08-03T06:32:55.533Z,17.10
2022-08-03T06:35:23.644Z,12.90
2022-08-03T06:37:52.811Z,17.10
2022-08-03T06:40:32.240Z,17.70
2022-08-03T06:43:02.349Z,16.40
2022-08-03T06:45:32.260Z,16.10
2022-08-03T06:48:11.766Z,16.40
2022-08-03T06:50:42.108Z,15.40
2022-08-03T06:53:11.390Z,16.80
2022-08-03T06:55:54.209Z,18.70
2022-08-03T06:58:24.252Z,15.20
2022-08-03T07:00:52.737Z,16.40
2022-08-03T07:03:21.025Z,16.30
2022-08-03T07:05:50.994Z,15.60
2022-08-03T07:08:19.298Z,15.20
2022-08-03T07:11:02.098Z,16.00
2022-08-03T07:13:30.170Z,15.00
2022-08-03T07:15:58.147Z,19.50
2022-08-03T07:18:29.686Z,13.40
2022-08-03T07:20:58.691Z,17.20
2022-08-03T07:23:26.682Z,17.90
2022-08-03T07:25:54.906Z,19.20
2022-08-03T07:28:22.889Z,15.00
2022-08-03T07:30:50.948Z,13.00
2022-08-03T07:33:18.945Z,16.10
2022-08-03T07:35:46.864Z,16.80
2022-08-03T07:38:14.786Z,22.20
2022-08-03T07:40:46.168Z,17.00
2022-08-03T07:43:14.456Z,19.50
2022-08-03T07:45:42.477Z,21.70
2022-08-03T07:48:12.623Z,17.90
2022-08-03T07:50:40.778Z,20.10
2022-08-03T07:53:08.877Z,19.20
2022-08-03T07:55:36.744Z,17.10
2022-08-03T07:58:12.624Z,14.30
2022-08-03T08:00:40.740Z,15.40
2022-08-03T08:03:09.050Z,15.40
2022-08-03T08:05:37.705Z,14.50
2022-08-03T08:08:05.948Z,16.00
2022-08-03T08:10:35.236Z,14.80
2022-08-03T08:13:04.881Z,13.90
2022-08-03T08:15:33.038Z,14.60
2022-08-03T08:18:02.552Z,13.60
2022-08-03T08:20:37.961Z,14.70
2022-08-03T08:23:19.275Z,12.70
2022-08-03T08:25:56.973Z,12.90
2022-08-03T08:28:32.303Z,14.50
2022-08-03T08:31:01.969Z,13.50
2022-08-03T08:33:42.486Z,12.60
2022-08-03T08:36:18.419Z,13.80
2022-08-03T08:38:46.490Z,12.10
2022-08-03T08:41:15.743Z,13.60
2022-08-03T08:43:43.878Z,14.50
2022-08-03T08:46:23.222Z,13.00
2022-08-03T08:48:54.160Z,12.80
2022-08-03T08:51:23.157Z,11.50
2022-08-03T08:53:54.003Z,11.60
2022-08-03T08:56:25.775Z,10.60
2022-08-03T08:58:58.504Z,10.10
2022-08-03T09:01:27.753Z,13.50
2022-08-03T09:03:55.740Z,12.20
2022-08-03T09:06:24.229Z,12.10
2022-08-03T09:08:52.265Z,10.90
2022-08-03T09:11:52.645Z,10.80
2022-08-03T09:14:34.432Z,9.60
2022-08-03T09:17:04.817Z,10.60
2022-08-03T09:19:34.884Z,12.60
2022-08-03T09:22:14.444Z,10.60
2022-08-03T09:25:22.661Z,11.20
2022-08-03T09:27:49.009Z,9.60
2022-08-03T09:30:33.391Z,10.40
2022-08-03T09:33:05.504Z,14.80
2022-08-03T09:35:53.028Z,13.50
2022-08-03T09:38:24.348Z,11.00
2022-08-03T09:40:58.843Z,13.80
2022-08-03T09:43:48.517Z,10.30
2022-08-03T09:46:18.807Z,9.30
2022-08-03T09:48:46.800Z,9.80
2022-08-03T09:51:32.755Z,11.20
2022-08-03T09:54:15.047Z,10.60
2022-08-03T09:56:47.413Z,10.50
2022-08-03T09:59:27.908Z,9.50
2022-08-03T10:01:57.236Z,8.50
2022-08-03T10:04:25.946Z,10.50
2022-08-03T10:07:09.491Z,19.70
2022-08-03T10:09:38.234Z,11.10
2022-08-03T10:12:13.966Z,9.60
2022-08-03T10:14:45.431Z,9.40
2022-08-03T10:17:13.889Z,9.30
2022-08-03T10:19:42.263Z,9.00
2022-08-03T10:22:22.793Z,9.20
2022-08-03T10:24:59.430Z,10.00
2022-08-03T10:27:32.926Z,9.50
2022-08-03T10:30:05.144Z,13.80
2022-08-03T10:32:43.229Z,14.10
2022-08-03T10:35:23.547Z,9.80
2022-08-03T10:38:23.112Z,9.10
2022-08-03T10:40:58.956Z,9.30
2022-08-03T10:43:49.254Z,11.90
2022-08-03T10:46:20.807Z,8.80
2022-08-03T10:48:51.820Z,8.30
2022-08-03T10:51:21.203Z,8.80
2022-08-03T10:53:54.490Z,9.00
2022-08-03T10:56:50.786Z,9.40
2022-08-03T10:59:46.709Z,7.00
2022-08-03T11:02:15.459Z,9.40
2022-08-03T11:04:45.347Z,11.50
2022-08-03T11:07:36.020Z,7.10
2022-08-03T11:10:07.766Z,8.20
2022-08-03T11:12:38.639Z,7.20
2022-08-03T11:15:08.889Z,8.00
2022-08-03T11:17:46.285Z,6.70
2022-08-03T11:20:57.642Z,7.40
2022-08-03T11:24:04.442Z,7.60
2022-08-03T11:26:30.263Z,8.60
2022-08-03T11:29:28.703Z,8.20
2022-08-03T11:31:56.604Z,6.80
2022-08-03T11:34:25.191Z,7.20
2022-08-03T11:37:22.965Z,6.90
2022-08-03T11:39:54.730Z,11.50
2022-08-03T11:42:22.963Z,5.90
2022-08-03T11:44:52.892Z,5.60
2022-08-03T11:47:21.947Z,6.00
2022-08-03T11:49:52.133Z,4.70
2022-08-03T11:52:26.674Z,5.50
2022-08-03T11:54:56.528Z,5.80
2022-08-03T11:59:10.731Z,6.50
2022-08-03T12:00:21.879Z,5.10
2022-08-03T12:03:13.960Z,5.70
2022-08-03T12:05:51.964Z,5.30
2022-08-03T12:08:32.370Z,5.30
2022-08-03T12:11:04.632Z,7.50
2022-08-03T12:14:44.123Z,7.40
2022-08-03T12:16:28.897Z,6.60
2022-08-03T12:18:59.437Z,8.00
2022-08-03T12:21:28.118Z,5.60
2022-08-03T12:24:05.998Z,5.20
2022-08-03T12:26:58.988Z,5.70
2022-08-03T12:29:28.910Z,5.00
2022-08-03T12:31:57.190Z,5.70
2022-08-03T12:34:47.226Z,7.00
2022-08-03T12:37:29.005Z,5.70
2022-08-03T12:40:10.104Z,4.60
2022-08-03T12:42:39.937Z,6.10
2022-08-03T12:45:21.250Z,5.70
2022-08-03T12:47:52.726Z,4.60
2022-08-03T12:50:27.235Z,5.50
2022-08-03T12:52:56.058Z,5.00
2022-08-03T12:55:24.775Z,5.30
2022-08-03T12:57:52.680Z,4.80
2022-08-03T13:00:21.381Z,6.40
2022-08-03T13:03:26.516Z,6.30
2022-08-03T13:05:48.294Z,6.80
2022-08-03T13:08:23.539Z,4.10
2022-08-03T13:10:52.035Z,7.00
2022-08-03T13:13:38.407Z,9.40
2022-08-03T13:16:06.396Z,7.90
2022-08-03T13:18:34.338Z,3.80
2022-08-03T13:21:02.423Z,6.80
2022-08-03T13:23:30.487Z,6.00
2022-08-03T13:25:58.524Z,7.40
2022-08-03T13:28:26.533Z,6.90
2022-08-03T13:30:54.908Z,7.00
2022-08-03T13:33:22.937Z,7.60
2022-08-03T13:35:50.969Z,5.80
2022-08-03T13:38:18.994Z,4.90
2022-08-03T13:40:51.987Z,4.10
2022-08-03T13:43:21.597Z,5.00
2022-08-03T13:45:53.533Z,3.90
2022-08-03T13:48:37.728Z,6.70
2022-08-03T13:51:21.596Z,6.70
2022-08-03T13:53:51.591Z,5.70
2022-08-03T13:56:19.552Z,6.90
2022-08-03T13:58:47.476Z,7.70
2022-08-03T14:01:15.666Z,4.90
2022-08-03T14:03:43.729Z,6.70
2022-08-03T14:06:11.692Z,4.60
2022-08-03T14:08:39.561Z,4.90
2022-08-03T14:11:07.479Z,5.10
2022-08-03T14:13:35.353Z,4.40
2022-08-03T14:16:03.940Z,8.00
2022-08-03T14:18:33.536Z,4.00
2022-08-03T14:21:06.447Z,3.90
2022-08-03T14:23:36.083Z,4.10
2022-08-03T14:26:07.941Z,5.80
2022-08-03T14:28:36.313Z,3.80
2022-08-03T14:31:08.373Z,4.10
2022-08-03T14:33:53.061Z,4.00
2022-08-03T14:36:21.048Z,4.70
2022-08-03T14:38:49.173Z,7.00
2022-08-03T14:41:20.047Z,5.50
2022-08-03T14:44:01.346Z,4.10
2022-08-03T14:46:31.380Z,4.30
2022-08-03T14:49:02.650Z,3.70
2022-08-03T14:51:51.230Z,3.80
2022-08-03T14:54:22.830Z,6.80
2022-08-03T14:56:51.176Z,4.60
2022-08-03T14:59:19.271Z,9.50
2022-08-03T15:02:02.696Z,4.20
2022-08-03T15:04:34.804Z,7.10
2022-08-03T15:07:02.940Z,3.60
2022-08-03T15:09:31.028Z,5.00
2022-08-03T15:11:59.691Z,4.50
2022-08-03T15:14:28.327Z,5.80
2022-08-03T15:17:01.140Z,5.90
2022-08-03T15:20:03.743Z,4.00
2022-08-03T15:22:18.981Z,5.30
2022-08-03T15:24:48.831Z,3.30
2022-08-03T15:27:16.890Z,6.90
2022-08-03T15:30:07.284Z,6.80
2022-08-03T15:32:34.070Z,7.20
2022-08-03T15:35:02.268Z,4.40
2022-08-03T15:37:33.234Z,4.50
2022-08-03T15:40:01.349Z,6.60
2022-08-03T15:42:30.682Z,5.10
2022-08-03T15:44:58.903Z,5.00
2022-08-03T15:47:27.492Z,5.30
2022-08-03T15:49:55.836Z,5.20
2022-08-03T15:52:24.016Z,4.50
2022-08-03T15:54:52.081Z,5.50
2022-08-03T15:57:20.700Z,6.80
2022-08-03T15:59:49.041Z,5.50
2022-08-03T16:02:17.075Z,5.00
2022-08-03T16:04:45.042Z,3.20
2022-08-03T16:07:15.920Z,4.50
2022-08-03T16:09:44.310Z,6.10
2022-08-03T16:12:16.272Z,3.40
2022-08-03T16:14:53.781Z,4.30
2022-08-03T16:17:22.640Z,4.40
2022-08-03T16:19:54.830Z,5.70
2022-08-03T16:22:24.192Z,4.60
2022-08-03T16:24:53.536Z,4.40
2022-08-03T16:27:58.151Z,4.30
2022-08-03T16:30:12.855Z,6.30
2022-08-03T16:32:40.825Z,3.50
2022-08-03T16:35:09.323Z,15.30
2022-08-03T16:37:51.843Z,6.70
2022-08-03T16:40:25.581Z,6.30
2022-08-03T16:42:53.558Z,10.70
2022-08-03T16:45:21.653Z,9.00
2022-08-03T16:48:01.738Z,7.50
2022-08-03T16:50:35.447Z,8.30
2022-08-03T16:53:09.497Z,6.40
2022-08-03T16:55:49.010Z,4.40
2022-08-03T16:58:34.825Z,9.50
2022-08-03T17:01:22.021Z,5.60
2022-08-03T17:04:02.816Z,9.80
2022-08-03T17:06:36.216Z,7.00
2022-08-03T17:09:12.801Z,4.80
2022-08-03T17:11:46.533Z,6.60
2022-08-03T17:14:17.386Z,4.80
2022-08-03T17:16:53.820Z,6.70
2022-08-03T17:19:25.361Z,9.00
2022-08-03T17:22:16.013Z,5.50
2022-08-03T17:24:51.077Z,7.20
2022-08-03T17:28:48.060Z,4.40
2022-08-03T17:30:15.944Z,5.00
2022-08-03T17:32:52.615Z,6.00
2022-08-03T17:35:34.313Z,7.60
2022-08-03T17:38:08.881Z,10.70
2022-08-03T17:40:48.277Z,7.10
2022-08-03T17:44:14.443Z,9.40
2022-08-03T17:46:10.780Z,5.40
2022-08-03T17:48:41.546Z,6.50
2022-08-03T17:51:30.025Z,9.60
2022-08-03T17:54:21.064Z,4.50
2022-08-03T17:57:01.334Z,7.00
2022-08-03T18:00:23.016Z,7.30
2022-08-03T18:03:15.997Z,8.00
2022-08-03T18:06:12.003Z,5.90
2022-08-03T18:08:43.337Z,6.50
2022-08-03T18:11:16.819Z,8.50
2022-08-03T18:13:57.975Z,6.30
2022-08-03T18:16:37.684Z,7.70
2022-08-03T18:19:09.685Z,6.90
2022-08-03T18:22:03.383Z,6.60
2022-08-03T18:24:31.517Z,7.50
2022-08-03T18:27:02.565Z,8.90
2022-08-03T18:29:31.338Z,5.40
2022-08-03T18:32:05.973Z,7.80
2022-08-03T18:34:41.151Z,8.60
2022-08-03T18:37:26.168Z,7.10
2022-08-03T18:39:58.370Z,9.10
2022-08-03T18:42:28.134Z,5.60
2022-08-03T18:48:11.895Z,6.30
2022-08-03T18:51:09.919Z,7.30
2022-08-03T18:56:50.178Z,8.50
2022-08-03T18:59:38.677Z,8.10
2022-08-03T19:02:09.659Z,8.60
2022-08-03T19:04:46.185Z,6.90
2022-08-03T19:07:23.346Z,8.20
2022-08-03T19:09:55.838Z,8.90
2022-08-03T19:12:37.848Z,9.60
2022-08-03T19:17:53.305Z,11.20
2022-08-03T19:20:28.213Z,12.50
2022-08-03T19:22:57.437Z,10.50
2022-08-03T19:25:34.508Z,9.50
2022-08-03T19:28:07.528Z,11.30
2022-08-03T19:30:39.893Z,11.80
2022-08-03T19:33:14.028Z,9.90
2022-08-03T19:35:55.006Z,14.10
2022-08-03T19:38:28.186Z,13.10
2022-08-03T19:41:02.086Z,11.30
2022-08-03T19:43:53.410Z,11.40
2022-08-03T19:46:30.946Z,9.90
2022-08-03T19:52:00.561Z,10.30
2022-08-03T19:54:53.429Z,10.30
2022-08-03T19:57:25.229Z,10.00
2022-08-03T19:59:55.129Z,7.40
2022-08-03T20:02:26.399Z,10.90
2022-08-03T20:04:57.181Z,7.50
2022-08-03T20:07:26.969Z,8.00
2022-08-03T20:09:56.676Z,9.30
2022-08-03T20:12:28.045Z,8.90
2022-08-03T20:14:58.562Z,8.20
2022-08-03T20:17:54.881Z,10.60
2022-08-03T20:20:24.110Z,8.70
2022-08-03T20:22:57.582Z,8.10
2022-08-03T20:25:38.754Z,10.80
2022-08-03T20:28:14.959Z,8.20
2022-08-03T20:30:47.200Z,9.20
2022-08-03T20:33:18.248Z,9.40
2022-08-03T20:35:49.788Z,7.90
2022-08-03T20:42:28.983Z,8.40
2022-08-03T20:45:04.374Z,8.50
2022-08-03T20:47:35.896Z,8.40
2022-08-03T20:50:04.558Z,8.90
2022-08-03T20:52:49.487Z,8.70
2022-08-03T20:55:47.062Z,8.40
2022-08-03T20:58:07.223Z,12.70
2022-08-03T21:00:35.439Z,10.00
2022-08-03T21:03:03.971Z,8.60
2022-08-03T21:05:51.290Z,8.80
2022-08-03T21:08:22.510Z,11.30
2022-08-03T21:10:59.138Z,9.30
2022-08-03T21:12:59.144Z,16.30
2022-08-03T21:13:09.878Z,8.00
2022-08-03T21:13:27.867Z,15.40
2022-08-03T21:16:11.708Z,9.20
2022-08-03T21:18:52.454Z,9.20
2022-08-03T21:21:22.921Z,10.10
2022-08-03T21:23:53.527Z,8.70
2022-08-03T21:26:26.017Z,9.20
2022-08-03T21:28:56.848Z,8.90
2022-08-03T21:31:26.523Z,10.00
2022-08-03T21:34:00.949Z,8.90
2022-08-03T21:36:34.666Z,10.80
2022-08-03T21:39:05.224Z,10.30
2022-08-03T21:41:33.289Z,10.90
2022-08-03T21:44:02.273Z,10.20
2022-08-03T21:46:35.579Z,11.10
2022-08-03T21:50:07.262Z,9.80
2022-08-03T21:52:05.197Z,11.00
2022-08-03T21:54:38.251Z,10.00
2022-08-03T21:57:13.354Z,10.10
2022-08-03T21:59:48.001Z,11.00
2022-08-03T22:02:24.032Z,11.20
2022-08-03T22:04:56.287Z,9.50
2022-08-03T22:07:27.654Z,12.80
2022-08-03T22:09:56.889Z,10.40
2022-08-03T22:12:27.285Z,9.30
2022-08-03T22:15:00.830Z,10.00
2022-08-03T22:17:55.060Z,10.30
2022-08-03T22:20:21.358Z,10.40
2022-08-03T22:22:56.061Z,10.40
2022-08-03T22:25:30.929Z,10.50
2022-08-03T22:28:01.592Z,10.90
2022-08-03T22:30:29.795Z,11.80
2022-08-03T22:32:59.437Z,10.90
2022-08-03T22:35:28.127Z,10.40
2022-08-03T22:37:58.585Z,10.40
2022-08-03T22:40:27.978Z,10.50
2022-08-03T22:42:56.881Z,11.40
2022-08-03T22:46:06.404Z,10.70
2022-08-03T22:48:18.207Z,14.30
2022-08-03T22:50:47.221Z,12.00
2022-08-03T22:53:21.086Z,11.80
2022-08-03T22:55:50.427Z,17.80
2022-08-03T22:58:23.471Z,11.40
2022-08-03T23:01:12.003Z,13.30
2022-08-03T23:04:00.253Z,11.80
2022-08-03T23:06:36.006Z,11.80
2022-08-03T23:09:07.090Z,11.70
2022-08-03T23:11:45.791Z,12.60
2022-08-03T23:14:16.775Z,11.80
2022-08-03T23:16:46.596Z,10.60
2022-08-03T23:19:24.986Z,13.50
2022-08-03T23:22:03.298Z,12.50
2022-08-03T23:24:38.174Z,12.50
2022-08-03T23:27:08.180Z,10.10
2022-08-03T23:29:38.548Z,10.50
2022-08-03T23:32:07.065Z,10.10
2022-08-03T23:34:57.319Z,13.10
2022-08-03T23:37:26.445Z,10.30
2022-08-03T23:39:57.069Z,11.10
2022-08-03T23:42:26.199Z,12.40
2022-08-03T23:44:59.293Z,10.70
2022-08-03T23:47:46.839Z,10.80
2022-08-03T23:50:16.852Z,9.60
2022-08-03T23:52:53.358Z,10.10
2022-08-03T23:55:36.812Z,9.80
2022-08-03T23:58:38.385Z,12.20
